Terminal Aerodrome Forecast
Issued by NWS

Home | Current Version | Previous Version | Text Only | Print | Product List | Glossary On
Versions: 1 2 3 4 5 6 7 8 9 10 11 12
807
FTUS45 KRIW 162321
TAFCOD
TAF
KCOD 162321Z 1700/1724 27010KT P6SM VCTS SCT070CB BKN150
     FM170200 23005KT P6SM FEW080 SCT150
     FM171700 02007KT P6SM SCT150
     FM172100 32009KT P6SM SCT150
      AMD LTD TO CLD VIS AND WIND=

USA.gov is the U.S. government's official web portal to all federal, state and local government web resources and services.